createdAt,value
2019-01-03T00:00:45.615Z,83.62
2019-01-03T00:03:22.329Z,83.96
2019-01-03T00:05:58.655Z,84.24
2019-01-03T00:10:35.129Z,84.33
2019-01-03T00:13:13.541Z,84.44
2019-01-03T00:15:49.772Z,84.61
2019-01-03T00:18:23.170Z,84.73
2019-01-03T00:22:01.546Z,84.89
2019-01-03T00:26:39.001Z,85.06
2019-01-03T00:29:18.347Z,85.58
2019-01-03T00:32:58.971Z,85.91
2019-01-03T00:35:32.184Z,86.10
2019-01-03T00:38:05.388Z,86.32
2019-01-03T00:40:37.680Z,86.47
2019-01-03T00:43:17.503Z,86.33
2019-01-03T00:45:51.817Z,86.41
2019-01-03T00:50:29.596Z,86.45
2019-01-03T00:53:09.104Z,86.45
2019-01-03T00:55:46.979Z,86.25
2019-01-03T00:58:50.751Z,86.13
2019-01-03T01:03:32.343Z,85.91
2019-01-03T01:06:05.242Z,85.59
2019-01-03T01:08:39.038Z,85.58
2019-01-03T01:13:18.325Z,85.53
2019-01-03T01:17:55.941Z,85.27
2019-01-03T01:20:30.234Z,85.52
2019-01-03T01:25:10.889Z,85.59
2019-01-03T01:27:58.666Z,85.56
2019-01-03T01:30:35.270Z,85.54
2019-01-03T01:33:08.835Z,85.52
2019-01-03T01:35:43.323Z,85.45
2019-01-03T01:38:16.688Z,85.64
2019-01-03T01:41:04.026Z,85.66
2019-01-03T01:43:37.546Z,85.76
2019-01-03T01:46:11.501Z,85.76
2019-01-03T01:50:47.180Z,85.77
2019-01-03T01:53:23.360Z,85.79
2019-01-03T01:55:56.783Z,85.84
2019-01-03T02:00:31.894Z,85.94
2019-01-03T02:03:09.580Z,86.22
2019-01-03T02:07:45.703Z,86.25
2019-01-03T02:12:24.221Z,86.40
2019-01-03T02:16:59.630Z,86.52
2019-01-03T02:19:34.159Z,86.51
2019-01-03T02:22:07.403Z,86.85
2019-01-03T02:25:11.688Z,86.90
2019-01-03T02:27:44.490Z,86.79
2019-01-03T02:30:23.116Z,86.96
2019-01-03T02:32:56.485Z,87.02
2019-01-03T02:36:36.866Z,87.13
2019-01-03T02:39:11.503Z,86.96
2019-01-03T02:42:49.033Z,87.19
2019-01-03T02:45:23.158Z,87.09
2019-01-03T02:47:55.732Z,87.10
2019-01-03T02:50:35.217Z,87.46
2019-01-03T02:53:14.049Z,87.46
2019-01-03T02:55:50.428Z,87.41
2019-01-03T02:58:33.107Z,87.58
2019-01-03T03:01:40.321Z,87.47
2019-01-03T03:04:44.968Z,87.54
2019-01-03T03:07:19.212Z,87.51
2019-01-03T03:09:52.578Z,87.49
2019-01-03T03:12:29.893Z,87.56
2019-01-03T03:15:34.534Z,87.38
2019-01-03T03:18:39.784Z,87.50
2019-01-03T03:21:13.838Z,87.46
2019-01-03T03:24:53.593Z,87.26
2019-01-03T03:27:25.847Z,86.85
2019-01-03T03:30:00.238Z,86.95
2019-01-03T03:33:03.555Z,86.84
2019-01-03T03:35:37.919Z,86.88
2019-01-03T03:38:11.348Z,86.87
2019-01-03T03:40:44.856Z,86.71
2019-01-03T03:43:18.303Z,86.72
2019-01-03T03:45:50.642Z,86.79
2019-01-03T03:48:23.161Z,86.82
2019-01-03T03:51:00.084Z,86.66
2019-01-03T03:54:04.787Z,86.71
2019-01-03T03:56:42.051Z,86.90
2019-01-03T03:59:19.896Z,86.62
2019-01-03T04:01:56.113Z,86.88
2019-01-03T04:06:36.317Z,87.05
2019-01-03T04:09:13.980Z,86.66
2019-01-03T04:12:18.927Z,86.62
2019-01-03T04:14:52.945Z,86.75
2019-01-03T04:19:28.170Z,86.87
2019-01-03T04:22:11.305Z,86.83
2019-01-03T04:24:45.857Z,87.20
2019-01-03T04:27:35.100Z,87.53
2019-01-03T04:30:08.573Z,87.96
2019-01-03T04:33:14.518Z,88.12
2019-01-03T04:36:50.184Z,88.33
2019-01-03T04:41:28.159Z,88.51
2019-01-03T04:44:08.581Z,88.58
2019-01-03T04:48:43.855Z,88.65
2019-01-03T04:53:18.879Z,89.01
2019-01-03T04:55:52.114Z,89.25
2019-01-03T04:58:45.432Z,89.33
2019-01-03T05:01:52.050Z,89.50
2019-01-03T05:04:33.226Z,89.71
2019-01-03T05:10:04.774Z,90.09
2019-01-03T05:12:41.649Z,90.35
2019-01-03T05:15:18.118Z,90.50
2019-01-03T05:17:51.515Z,90.72
2019-01-03T05:20:31.314Z,90.82
2019-01-03T05:23:38.918Z,90.80
2019-01-03T05:26:26.751Z,90.57
2019-01-03T05:29:26.390Z,90.57
2019-01-03T05:33:02.511Z,90.73
2019-01-03T05:37:41.369Z,90.73
2019-01-03T05:41:17.327Z,90.67
2019-01-03T05:43:50.901Z,91.13
2019-01-03T05:47:28.369Z,91.18
2019-01-03T05:50:07.653Z,91.45
2019-01-03T05:52:40.999Z,91.54
2019-01-03T05:55:14.557Z,91.79
2019-01-03T05:58:01.848Z,91.82
2019-01-03T06:00:35.268Z,92.00
2019-01-03T06:03:09.994Z,91.94
2019-01-03T06:05:43.219Z,92.00
2019-01-03T06:09:19.256Z,92.23
2019-01-03T06:11:58.793Z,92.24
2019-01-03T06:14:31.316Z,92.34
2019-01-03T06:21:30.311Z,92.36
2019-01-03T06:26:09.454Z,92.32
2019-01-03T06:30:48.955Z,92.84
2019-01-03T06:33:30.082Z,93.50
2019-01-03T06:38:10.965Z,93.88
2019-01-03T06:40:44.565Z,94.46
2019-01-03T06:43:21.081Z,94.50
2019-01-03T06:45:54.539Z,94.58
2019-01-03T06:48:31.104Z,94.50
2019-01-03T06:51:04.515Z,94.66
2019-01-03T06:53:44.029Z,94.89
2019-01-03T06:56:20.475Z,94.98
2019-01-03T06:58:54.033Z,95.01
2019-01-03T07:04:17.558Z,95.29
2019-01-03T07:06:58.601Z,95.38
2019-01-03T07:09:31.799Z,95.54
2019-01-03T07:12:05.634Z,95.73
2019-01-03T07:14:46.832Z,95.90
2019-01-03T07:17:24.565Z,96.09
2019-01-03T07:21:01.859Z,96.13
2019-01-03T07:23:35.429Z,96.14
2019-01-03T07:26:08.800Z,96.04
2019-01-03T07:28:43.096Z,96.20
2019-01-03T07:32:19.713Z,96.23
2019-01-03T07:34:53.651Z,96.33
2019-01-03T07:39:34.457Z,96.44
2019-01-03T07:42:08.122Z,96.52
2019-01-03T07:44:47.279Z,96.52
2019-01-03T07:48:17.775Z,96.86
2019-01-03T07:50:56.747Z,97.01
2019-01-03T07:53:30.171Z,97.06
2019-01-03T07:56:05.795Z,97.15
2019-01-03T07:58:38.892Z,97.27
2019-01-03T08:01:15.203Z,97.21
2019-01-03T08:03:56.191Z,97.21
2019-01-03T08:07:27.609Z,97.57
2019-01-03T08:09:59.910Z,97.70
2019-01-03T08:14:35.119Z,97.73
2019-01-03T08:17:08.622Z,97.88
2019-01-03T08:20:44.940Z,98.04
2019-01-03T08:23:18.270Z,98.07
2019-01-03T08:25:52.711Z,98.19
2019-01-03T08:28:29.790Z,98.15
2019-01-03T08:31:11.863Z,98.33
2019-01-03T08:33:45.275Z,98.32
2019-01-03T08:36:20.989Z,98.29
2019-01-03T08:38:54.528Z,98.23
2019-01-03T08:41:28.368Z,98.13
2019-01-03T08:44:02.756Z,98.19
2019-01-03T08:46:37.014Z,98.38
2019-01-03T08:49:10.742Z,98.29
2019-01-03T08:51:47.807Z,98.16
2019-01-03T08:56:24.324Z,98.01
2019-01-03T08:59:08.537Z,97.95
2019-01-03T09:01:42.300Z,98.08
2019-01-03T09:04:48.554Z,98.16
2019-01-03T09:07:22.214Z,98.26
2019-01-03T09:11:03.686Z,98.12
2019-01-03T09:14:43.584Z,98.22
2019-01-03T09:20:02.287Z,98.46
2019-01-03T09:24:40.017Z,98.58
2019-01-03T09:27:14.347Z,98.63
2019-01-03T09:29:51.720Z,98.55
2019-01-03T09:32:30.352Z,98.61
2019-01-03T09:35:03.576Z,98.61
2019-01-03T09:37:45.245Z,98.55
2019-01-03T09:40:48.548Z,98.59
2019-01-03T09:43:52.945Z,98.33
2019-01-03T09:46:20.660Z,98.48
2019-01-03T09:48:48.782Z,98.28
2019-01-03T09:51:16.690Z,98.23
2019-01-03T09:53:44.774Z,98.22
2019-01-03T09:56:12.769Z,98.15
2019-01-03T09:58:40.727Z,97.90
2019-01-03T10:01:08.375Z,97.41
2019-01-03T10:03:36.750Z,97.09
2019-01-03T10:06:04.887Z,96.66
2019-01-03T10:08:33.277Z,95.98
2019-01-03T10:11:01.335Z,95.52
2019-01-03T10:13:29.133Z,94.92
2019-01-03T10:15:56.955Z,94.27
2019-01-03T10:18:24.990Z,93.75
2019-01-03T10:20:53.034Z,92.98
2019-01-03T10:23:22.230Z,92.59
2019-01-03T10:25:50.288Z,92.04
2019-01-03T10:28:18.344Z,91.76
2019-01-03T10:30:46.904Z,91.09
2019-01-03T10:33:15.012Z,91.16
2019-01-03T10:35:42.710Z,90.70
2019-01-03T10:38:10.451Z,90.32
2019-01-03T10:40:39.670Z,89.47
2019-01-03T10:43:07.472Z,89.04
2019-01-03T10:45:36.623Z,88.71
2019-01-03T10:48:08.091Z,88.85
2019-01-03T10:50:36.283Z,88.92
2019-01-03T10:53:04.613Z,88.54
2019-01-03T10:55:33.576Z,88.18
2019-01-03T10:58:01.625Z,87.96
2019-01-03T11:00:31.002Z,87.77
2019-01-03T11:02:59.619Z,87.54
2019-01-03T11:05:32.287Z,87.04
2019-01-03T11:08:00.398Z,87.04
2019-01-03T11:10:28.347Z,86.87
2019-01-03T11:12:56.173Z,86.73
2019-01-03T11:15:37.633Z,86.92
2019-01-03T11:18:09.156Z,86.78
2019-01-03T11:20:38.230Z,86.41
2019-01-03T11:23:06.222Z,85.94
2019-01-03T11:25:34.292Z,85.11
2019-01-03T11:28:02.113Z,85.21
2019-01-03T11:30:31.465Z,85.48
2019-01-03T11:33:00.308Z,85.37
2019-01-03T11:35:34.158Z,86.33
2019-01-03T11:38:07.299Z,88.68
2019-01-03T11:40:35.163Z,91.00
2019-01-03T11:43:03.285Z,92.90
2019-01-03T11:45:31.619Z,94.25
2019-01-03T11:47:59.615Z,95.88
2019-01-03T11:50:27.420Z,96.83
2019-01-03T11:52:55.155Z,98.07
2019-01-03T11:55:23.131Z,98.68
2019-01-03T11:57:50.871Z,99.22
2019-01-03T12:00:18.942Z,99.58
2019-01-03T12:02:47.027Z,99.72
2019-01-03T12:05:15.134Z,99.61
2019-01-03T12:07:43.020Z,99.60
2019-01-03T12:10:11.462Z,98.84
2019-01-03T12:12:39.146Z,97.81
2019-01-03T12:15:08.205Z,97.42
2019-01-03T12:17:36.232Z,97.21
2019-01-03T12:20:04.678Z,96.96
2019-01-03T12:22:33.036Z,96.92
2019-01-03T12:25:01.338Z,96.88
2019-01-03T12:27:29.160Z,96.77
2019-01-03T12:29:58.860Z,96.41
2019-01-03T12:32:27.919Z,96.26
2019-01-03T12:35:06.401Z,96.87
2019-01-03T12:37:35.542Z,97.15
2019-01-03T12:40:04.945Z,97.17
2019-01-03T12:42:32.684Z,97.60
2019-01-03T12:45:01.402Z,97.90
2019-01-03T12:47:30.145Z,98.21
2019-01-03T12:50:01.600Z,98.29
2019-01-03T12:52:30.481Z,97.96
2019-01-03T12:54:59.022Z,97.84
2019-01-03T12:57:28.879Z,97.72
2019-01-03T13:00:00.108Z,97.57
2019-01-03T13:02:27.835Z,97.38
2019-01-03T13:04:55.859Z,97.00
2019-01-03T13:07:24.381Z,96.71
2019-01-03T13:09:55.815Z,96.18
2019-01-03T13:12:23.826Z,95.71
2019-01-03T13:14:51.926Z,95.45
2019-01-03T13:17:21.458Z,95.26
2019-01-03T13:19:52.829Z,94.54
2019-01-03T13:22:24.243Z,93.98
2019-01-03T13:24:53.480Z,93.71
2019-01-03T13:27:25.590Z,93.49
2019-01-03T13:29:54.704Z,93.49
2019-01-03T13:32:24.092Z,93.61
2019-01-03T13:34:52.526Z,93.77
2019-01-03T13:37:24.691Z,94.09
2019-01-03T13:39:53.638Z,94.23
2019-01-03T13:42:21.532Z,94.27
2019-01-03T13:44:49.765Z,94.22
2019-01-03T13:47:19.313Z,94.54
2019-01-03T13:49:47.473Z,94.89
2019-01-03T13:52:15.723Z,94.68
2019-01-03T13:54:43.451Z,95.00
2019-01-03T13:57:11.848Z,95.12
2019-01-03T13:59:40.020Z,95.55
2019-01-03T14:02:07.813Z,95.79
2019-01-03T14:04:35.564Z,95.87
2019-01-03T14:07:04.191Z,96.04
2019-01-03T14:09:32.155Z,96.08
2019-01-03T14:12:00.087Z,96.04
2019-01-03T14:14:28.241Z,95.98
2019-01-03T14:16:58.267Z,96.08
2019-01-03T14:19:26.080Z,96.25
2019-01-03T14:21:54.692Z,96.27
2019-01-03T14:24:23.195Z,96.25
2019-01-03T14:26:56.824Z,96.56
2019-01-03T14:29:25.803Z,96.71
2019-01-03T14:31:54.127Z,96.90
2019-01-03T14:34:22.636Z,96.93
2019-01-03T14:36:52.052Z,96.72
2019-01-03T14:39:21.245Z,96.27
2019-01-03T14:41:55.227Z,95.66
2019-01-03T14:44:26.107Z,95.15
2019-01-03T14:47:02.371Z,95.02
2019-01-03T14:49:31.362Z,94.92
2019-01-03T14:52:01.413Z,94.64
2019-01-03T14:54:35.299Z,94.63
2019-01-03T14:57:03.128Z,94.54
2019-01-03T14:59:31.482Z,94.52
2019-01-03T15:02:00.641Z,94.54
2019-01-03T15:04:28.456Z,94.83
2019-01-03T15:06:56.199Z,95.09
2019-01-03T15:09:27.462Z,95.06
2019-01-03T15:11:55.408Z,95.00
2019-01-03T15:14:25.081Z,95.06
2019-01-03T15:16:52.774Z,95.28
2019-01-03T15:19:20.855Z,95.35
2019-01-03T15:21:49.153Z,95.16
2019-01-03T15:24:17.122Z,95.68
2019-01-03T15:26:45.187Z,95.80
2019-01-03T15:29:13.424Z,95.93
2019-01-03T15:31:43.708Z,96.15
2019-01-03T15:34:12.832Z,96.38
2019-01-03T15:36:41.067Z,96.54
2019-01-03T15:39:09.306Z,96.66
2019-01-03T15:41:37.329Z,96.63
2019-01-03T15:44:05.599Z,96.99
2019-01-03T15:46:33.912Z,97.02
2019-01-03T15:49:02.894Z,97.10
2019-01-03T15:51:31.288Z,97.31
2019-01-03T15:54:00.066Z,97.22
2019-01-03T15:56:27.770Z,97.90
2019-01-03T15:59:00.536Z,98.11
2019-01-03T16:01:28.587Z,97.93
2019-01-03T16:03:56.578Z,98.34
2019-01-03T16:06:25.271Z,98.42
2019-01-03T16:08:58.964Z,98.65
2019-01-03T16:11:27.371Z,98.67
2019-01-03T16:13:55.667Z,99.00
2019-01-03T16:16:24.743Z,99.14
2019-01-03T16:18:52.492Z,99.18
2019-01-03T16:21:24.510Z,99.16
2019-01-03T16:23:52.483Z,99.22
2019-01-03T16:26:20.955Z,99.55
2019-01-03T16:28:49.041Z,99.78
2019-01-03T16:31:16.990Z,100.00
2019-01-03T16:33:44.683Z,100.00
2019-01-03T16:36:12.896Z,100.00
2019-01-03T16:38:40.711Z,100.00
2019-01-03T16:41:13.333Z,100.00
2019-01-03T16:43:42.026Z,100.00
2019-01-03T16:46:13.187Z,100.00
2019-01-03T16:48:40.955Z,100.00
2019-01-03T16:51:08.874Z,100.00
2019-01-03T16:53:36.911Z,100.00
2019-01-03T16:56:05.360Z,100.00
2019-01-03T16:58:33.234Z,100.00
2019-01-03T17:01:01.127Z,100.00
2019-01-03T17:06:02.051Z,100.00
2019-01-03T17:08:29.878Z,100.00
2019-01-03T17:10:58.451Z,100.00
2019-01-03T17:13:26.651Z,100.00
2019-01-03T17:15:56.041Z,100.00
2019-01-03T17:18:25.293Z,100.00
2019-01-03T17:20:54.726Z,100.00
2019-01-03T17:23:26.279Z,100.00
2019-01-03T17:25:54.391Z,100.00
2019-01-03T17:28:22.444Z,100.00
2019-01-03T17:30:50.212Z,100.00
2019-01-03T17:33:18.820Z,100.00
2019-01-03T17:35:46.684Z,100.00
2019-01-03T17:38:17.454Z,100.00
2019-01-03T17:40:45.989Z,100.00
2019-01-03T17:43:13.855Z,100.00
2019-01-03T17:45:44.960Z,100.00
2019-01-03T17:48:13.668Z,100.00
2019-01-03T17:50:41.656Z,100.00
2019-01-03T17:53:11.310Z,100.00
2019-01-03T17:55:41.559Z,100.00
2019-01-03T17:58:11.134Z,100.00
2019-01-03T18:00:42.299Z,100.00
2019-01-03T18:03:13.721Z,100.00
2019-01-03T18:05:44.180Z,100.00
2019-01-03T18:08:13.622Z,100.00
2019-01-03T18:10:46.995Z,100.00
2019-01-03T18:13:14.856Z,100.00
2019-01-03T18:15:43.476Z,100.00
2019-01-03T18:18:14.053Z,100.00
2019-01-03T18:20:43.800Z,100.00
2019-01-03T18:23:13.928Z,100.00
2019-01-03T18:25:42.279Z,100.00
2019-01-03T18:28:11.462Z,100.00
2019-01-03T18:30:39.340Z,100.00
2019-01-03T18:33:09.844Z,100.00
2019-01-03T18:35:38.417Z,100.00
2019-01-03T18:38:06.580Z,100.00
2019-01-03T18:40:35.143Z,100.00
2019-01-03T18:43:04.478Z,100.00
2019-01-03T18:45:32.601Z,100.00
2019-01-03T18:48:02.269Z,100.00
2019-01-03T18:50:31.090Z,100.00
2019-01-03T18:52:59.702Z,100.00
2019-01-03T18:55:31.085Z,100.00
2019-01-03T18:57:59.498Z,100.00
2019-01-03T19:00:30.962Z,100.00
2019-01-03T19:02:58.724Z,100.00
2019-01-03T19:05:30.738Z,100.00
2019-01-03T19:08:02.448Z,100.00
2019-01-03T19:10:32.972Z,100.00
2019-01-03T19:13:04.157Z,100.00
2019-01-03T19:15:32.814Z,100.00
2019-01-03T19:18:00.873Z,100.00
2019-01-03T19:20:29.803Z,100.00
2019-01-03T19:22:57.909Z,100.00
2019-01-03T19:25:26.174Z,100.00
2019-01-03T19:27:54.435Z,100.00
2019-01-03T19:30:23.533Z,100.00
2019-01-03T19:32:51.667Z,100.00
2019-01-03T19:35:19.434Z,100.00
2019-01-03T19:37:48.337Z,100.00
2019-01-03T19:40:16.464Z,100.00
2019-01-03T19:42:49.038Z,100.00
2019-01-03T19:45:17.812Z,100.00
2019-01-03T19:47:50.450Z,100.00
2019-01-03T19:50:20.245Z,100.00
2019-01-03T19:52:51.881Z,100.00
2019-01-03T19:55:21.108Z,100.00
2019-01-03T19:57:50.664Z,100.00
2019-01-03T20:00:18.640Z,100.00
2019-01-03T20:02:47.921Z,100.00
2019-01-03T20:05:17.519Z,100.00
2019-01-03T20:07:52.172Z,100.00
2019-01-03T20:10:27.369Z,100.00
2019-01-03T20:12:55.543Z,100.00
2019-01-03T20:15:25.180Z,100.00
2019-01-03T20:17:53.603Z,100.00
2019-01-03T20:20:21.600Z,100.00
2019-01-03T20:22:54.475Z,100.00
2019-01-03T20:25:22.986Z,100.00
2019-01-03T20:27:55.293Z,100.00
2019-01-03T20:30:30.113Z,100.00
2019-01-03T20:32:58.287Z,100.00
2019-01-03T20:35:26.266Z,100.00
2019-01-03T20:37:56.792Z,100.00
2019-01-03T20:40:24.960Z,100.00
2019-01-03T20:42:53.982Z,100.00
2019-01-03T20:45:22.067Z,100.00
2019-01-03T20:47:50.688Z,100.00
2019-01-03T20:50:18.602Z,100.00
2019-01-03T20:52:50.517Z,100.00
2019-01-03T20:55:21.895Z,100.00
2019-01-03T20:57:52.755Z,100.00
2019-01-03T21:00:21.280Z,100.00
2019-01-03T21:02:50.090Z,100.00
2019-01-03T21:05:26.787Z,100.00
2019-01-03T21:08:04.347Z,100.00
2019-01-03T21:10:32.802Z,100.00
2019-01-03T21:13:04.435Z,100.00
2019-01-03T21:15:35.850Z,100.00
2019-01-03T21:18:05.359Z,100.00
2019-01-03T21:20:36.304Z,100.00
2019-01-03T21:23:07.087Z,100.00
2019-01-03T21:25:35.663Z,100.00
2019-01-03T21:28:05.927Z,100.00
2019-01-03T21:30:33.921Z,100.00
2019-01-03T21:33:03.854Z,100.00
2019-01-03T21:35:34.050Z,100.00
2019-01-03T21:38:02.093Z,100.00
2019-01-03T21:40:31.541Z,100.00
2019-01-03T21:42:59.924Z,100.00
2019-01-03T21:45:30.748Z,100.00
2019-01-03T21:48:02.340Z,100.00
2019-01-03T21:50:30.727Z,100.00
2019-01-03T21:53:25.785Z,100.00
2019-01-03T21:56:09.440Z,100.00
2019-01-03T23:24:51.454Z,100.00
2019-01-03T23:27:20.214Z,100.00
2019-01-03T23:29:48.155Z,100.00
2019-01-03T23:32:17.603Z,100.00
2019-01-03T23:34:45.495Z,100.00
2019-01-03T23:37:14.020Z,100.00
2019-01-03T23:39:42.256Z,100.00
2019-01-03T23:42:10.240Z,100.00
2019-01-03T23:44:48.129Z,100.00
2019-01-03T23:47:17.613Z,100.00
2019-01-03T23:49:45.550Z,100.00
2019-01-03T23:52:13.278Z,100.00
2019-01-03T23:54:41.669Z,100.00
2019-01-03T23:57:09.681Z,100.00
2019-01-03T23:59:37.614Z,100.00
